createdAt,value
2019-02-05T00:00:32.390Z,0.00
2019-02-05T00:01:34.069Z,0.00
2019-02-05T00:02:32.300Z,0.00
2019-02-05T00:03:32.252Z,0.00
2019-02-05T00:04:32.219Z,0.00
2019-02-05T00:05:32.166Z,0.00
2019-02-05T00:06:32.133Z,0.00
2019-02-05T00:07:32.086Z,0.00
2019-02-05T00:08:32.035Z,0.00
2019-02-05T00:09:31.995Z,0.00
2019-02-05T00:10:31.959Z,0.00
2019-02-05T00:11:31.913Z,0.00
2019-02-05T00:12:31.868Z,0.00
2019-02-05T00:13:31.826Z,0.00
2019-02-05T00:14:31.846Z,0.00
2019-02-05T00:15:31.731Z,0.00
2019-02-05T00:16:31.713Z,0.00
2019-02-05T00:17:31.649Z,0.00
2019-02-05T00:18:31.614Z,0.00
2019-02-05T00:19:31.564Z,0.00
2019-02-05T00:20:31.528Z,0.00
2019-02-05T00:21:31.478Z,0.00
2019-02-05T00:22:31.433Z,0.00
2019-02-05T00:23:31.383Z,0.00
2019-02-05T00:24:31.346Z,0.00
2019-02-05T00:25:31.299Z,0.00
2019-02-05T00:26:31.256Z,0.00
2019-02-05T00:27:31.210Z,0.00
2019-02-05T00:28:31.166Z,0.00
2019-02-05T00:29:31.132Z,0.00
2019-02-05T00:30:31.091Z,0.00
2019-02-05T00:31:31.042Z,0.00
2019-02-05T00:32:30.997Z,0.00
2019-02-05T00:33:30.951Z,0.00
2019-02-05T00:34:30.914Z,0.00
2019-02-05T00:35:30.864Z,0.00
2019-02-05T00:36:30.816Z,0.00
2019-02-05T00:37:30.779Z,0.00
2019-02-05T00:38:30.744Z,0.00
2019-02-05T00:39:30.697Z,0.00
2019-02-05T00:40:30.648Z,0.00
2019-02-05T00:41:30.618Z,0.00
2019-02-05T00:42:30.570Z,0.00
2019-02-05T00:43:30.534Z,0.00
2019-02-05T00:44:30.483Z,0.00
2019-02-05T00:45:30.436Z,0.00
2019-02-05T00:46:30.423Z,0.00
2019-02-05T00:47:32.261Z,0.00
2019-02-05T00:48:30.299Z,0.00
2019-02-05T00:49:30.257Z,0.00
2019-02-05T00:50:30.215Z,0.00
2019-02-05T00:51:30.173Z,0.00
2019-02-05T00:52:30.170Z,0.00
2019-02-05T00:53:30.090Z,0.00
2019-02-05T00:54:30.044Z,0.00
2019-02-05T00:55:30.021Z,0.00
2019-02-05T00:56:29.961Z,0.00
2019-02-05T00:57:29.908Z,0.00
2019-02-05T00:58:29.888Z,0.00
2019-02-05T00:59:29.820Z,0.00
2019-02-05T01:00:29.786Z,0.00
2019-02-05T01:01:29.737Z,0.00
2019-02-05T01:02:29.692Z,0.00
2019-02-05T01:03:29.651Z,0.00
2019-02-05T01:04:29.617Z,0.00
2019-02-05T01:05:29.582Z,0.00
2019-02-05T01:06:29.526Z,0.00
2019-02-05T01:07:29.477Z,0.00
2019-02-05T01:08:29.432Z,0.00
2019-02-05T01:09:29.393Z,0.00
2019-02-05T01:10:29.345Z,0.00
2019-02-05T01:11:29.303Z,0.00
2019-02-05T01:12:29.257Z,0.00
2019-02-05T01:13:29.219Z,0.00
2019-02-05T01:14:29.179Z,0.00
2019-02-05T01:15:29.158Z,0.00
2019-02-05T01:16:29.095Z,0.00
2019-02-05T01:17:29.043Z,0.00
2019-02-05T01:18:28.998Z,0.00
2019-02-05T01:19:28.972Z,0.00
2019-02-05T01:20:28.912Z,0.00
2019-02-05T01:21:28.865Z,0.00
2019-02-05T01:22:28.824Z,0.00
2019-02-05T01:23:28.787Z,0.00
2019-02-05T01:24:28.744Z,0.00
2019-02-05T01:25:28.694Z,0.00
2019-02-05T01:26:29.563Z,0.00
2019-02-05T01:27:28.607Z,0.00
2019-02-05T01:28:28.568Z,0.00
2019-02-05T01:29:28.520Z,0.00
2019-02-05T01:30:28.489Z,0.00
2019-02-05T01:31:28.430Z,0.00
2019-02-05T01:32:28.388Z,0.00
2019-02-05T01:33:28.347Z,0.00
2019-02-05T01:34:28.303Z,0.00
2019-02-05T01:35:28.263Z,0.00
2019-02-05T01:36:28.226Z,0.00
2019-02-05T01:37:28.174Z,0.00
2019-02-05T01:38:28.131Z,0.00
2019-02-05T01:39:28.087Z,0.00
2019-02-05T01:40:28.045Z,0.00
2019-02-05T01:41:28.012Z,0.00
2019-02-05T01:42:27.957Z,0.00
2019-02-05T01:43:27.919Z,0.00
2019-02-05T01:44:27.874Z,0.00
2019-02-05T01:45:27.831Z,0.00
2019-02-05T01:46:27.788Z,0.00
2019-02-05T01:47:27.745Z,0.00
2019-02-05T01:48:27.703Z,0.00
2019-02-05T01:49:27.654Z,0.00
2019-02-05T01:50:27.726Z,0.00
2019-02-05T01:51:27.674Z,0.00
2019-02-05T01:52:27.521Z,0.00
2019-02-05T01:53:27.483Z,0.00
2019-02-05T01:54:27.438Z,0.00
2019-02-05T01:55:27.400Z,0.00
2019-02-05T01:56:27.378Z,0.00
2019-02-05T01:57:27.307Z,0.00
2019-02-05T01:58:27.269Z,0.00
2019-02-05T01:59:27.230Z,0.00
2019-02-05T02:00:27.182Z,0.00
2019-02-05T02:01:27.150Z,0.00
2019-02-05T02:02:27.098Z,0.00
2019-02-05T02:03:27.045Z,0.00
2019-02-05T02:04:27.019Z,0.00
2019-02-05T02:05:26.961Z,0.00
2019-02-05T02:06:26.925Z,0.00
2019-02-05T02:07:26.879Z,0.00
2019-02-05T02:08:26.835Z,0.00
2019-02-05T02:09:26.789Z,0.00
2019-02-05T02:10:26.743Z,0.00
2019-02-05T02:11:26.706Z,0.00
2019-02-05T02:12:26.659Z,0.00
2019-02-05T02:13:26.617Z,0.00
2019-02-05T02:14:26.574Z,0.00
2019-02-05T02:15:26.541Z,0.00
2019-02-05T02:16:26.494Z,0.00
2019-02-05T02:17:26.489Z,0.00
2019-02-05T02:18:26.398Z,0.00
2019-02-05T02:19:26.359Z,0.00
2019-02-05T02:20:26.316Z,0.00
2019-02-05T02:21:26.270Z,0.00
2019-02-05T02:22:26.255Z,0.00
2019-02-05T02:23:26.177Z,0.00
2019-02-05T02:24:26.137Z,0.00
2019-02-05T02:25:26.094Z,0.00
2019-02-05T02:26:26.050Z,0.00
2019-02-05T02:27:26.011Z,0.00
2019-02-05T02:28:25.970Z,0.00
2019-02-05T02:29:25.922Z,0.00
2019-02-05T02:30:25.879Z,0.00
2019-02-05T02:31:25.833Z,0.00
2019-02-05T02:32:25.801Z,0.00
2019-02-05T02:33:25.748Z,0.00
2019-02-05T02:34:25.701Z,0.00
2019-02-05T02:35:25.659Z,0.00
2019-02-05T02:36:25.614Z,0.00
2019-02-05T02:37:25.571Z,0.00
2019-02-05T02:38:25.534Z,0.00
2019-02-05T02:39:25.490Z,0.00
2019-02-05T02:40:25.456Z,0.00
2019-02-05T02:41:25.402Z,0.00
2019-02-05T02:42:25.361Z,0.00
2019-02-05T02:43:25.319Z,0.00
2019-02-05T02:44:34.937Z,0.00
2019-02-05T02:46:29.689Z,0.00
2019-02-05T02:47:29.620Z,0.00
2019-02-05T02:48:29.581Z,0.00
2019-02-05T02:49:29.541Z,0.00
2019-02-05T02:50:29.490Z,0.00
2019-02-05T02:51:29.489Z,0.00
2019-02-05T02:52:29.400Z,0.00
2019-02-05T02:53:29.360Z,0.00
2019-02-05T02:54:29.315Z,0.00
2019-02-05T02:55:29.271Z,0.00
2019-02-05T02:56:29.231Z,0.00
2019-02-05T02:57:29.186Z,0.00
2019-02-05T02:58:29.142Z,0.00
2019-02-05T02:59:29.098Z,0.00
2019-02-05T03:00:29.066Z,0.00
2019-02-05T03:01:29.014Z,0.00
2019-02-05T03:02:28.970Z,0.00
2019-02-05T03:03:28.938Z,0.00
2019-02-05T03:04:28.879Z,0.00
2019-02-05T03:05:28.849Z,0.00
2019-02-05T03:06:28.798Z,0.00
2019-02-05T03:07:28.753Z,0.00
2019-02-05T03:08:28.744Z,0.00
2019-02-05T03:09:28.669Z,0.00
2019-02-05T03:10:28.626Z,0.00
2019-02-05T03:11:28.583Z,0.00
2019-02-05T03:12:28.540Z,0.00
2019-02-05T03:13:28.542Z,0.00
2019-02-05T03:14:28.448Z,0.00
2019-02-05T03:15:28.410Z,0.00
2019-02-05T03:16:28.370Z,0.00
2019-02-05T03:17:28.325Z,0.00
2019-02-05T03:18:28.280Z,0.00
2019-02-05T03:19:28.233Z,0.00
2019-02-05T03:20:28.188Z,0.00
2019-02-05T03:21:28.144Z,0.00
2019-02-05T03:22:28.100Z,0.00
2019-02-05T03:23:28.060Z,0.00
2019-02-05T03:24:28.019Z,0.00
2019-02-05T03:25:27.986Z,0.00
2019-02-05T03:26:27.935Z,0.00
2019-02-05T03:27:27.885Z,0.00
2019-02-05T03:28:27.844Z,0.00
2019-02-05T03:29:27.802Z,0.00
2019-02-05T03:30:27.762Z,0.00
2019-02-05T03:31:27.716Z,0.00
2019-02-05T03:32:27.672Z,0.00
2019-02-05T03:33:27.656Z,0.00
2019-02-05T03:34:27.722Z,0.00
2019-02-05T03:35:27.538Z,0.00
2019-02-05T03:36:27.499Z,0.00
2019-02-05T03:37:27.457Z,0.00
2019-02-05T03:38:27.408Z,0.00
2019-02-05T03:39:27.365Z,0.00
2019-02-05T03:40:27.319Z,0.00
2019-02-05T03:41:27.280Z,0.00
2019-02-05T03:42:27.236Z,0.00
2019-02-05T03:43:27.196Z,0.00
2019-02-05T03:44:27.155Z,0.00
2019-02-05T03:45:27.108Z,0.00
2019-02-05T03:46:27.061Z,0.00
2019-02-05T03:47:27.021Z,0.00
2019-02-05T03:48:26.979Z,0.00
2019-02-05T03:49:26.936Z,0.00
2019-02-05T03:50:26.894Z,0.00
2019-02-05T04:06:28.679Z,0.00
2019-02-05T04:07:28.428Z,0.00
2019-02-05T04:08:28.594Z,0.00
2019-02-05T04:09:28.355Z,0.00
2019-02-05T04:10:28.269Z,0.00
2019-02-05T04:11:28.227Z,0.00
2019-02-05T04:12:28.191Z,0.00
2019-02-05T04:13:28.132Z,0.00
2019-02-05T04:14:28.091Z,0.00
2019-02-05T04:15:28.047Z,0.00
2019-02-05T04:16:28.008Z,0.00
2019-02-05T04:17:27.959Z,0.00
2019-02-05T04:18:27.911Z,0.00
2019-02-05T04:19:27.872Z,0.00
2019-02-05T04:20:27.820Z,0.00
2019-02-05T04:21:27.778Z,0.00
2019-02-05T04:22:27.737Z,0.00
2019-02-05T04:23:27.695Z,0.00
2019-02-05T04:24:27.650Z,0.00
2019-02-05T04:25:27.607Z,0.00
2019-02-05T04:26:27.563Z,0.00
2019-02-05T04:27:27.622Z,0.00
2019-02-05T04:28:27.474Z,0.00
2019-02-05T04:29:27.428Z,0.00
2019-02-05T04:30:27.385Z,0.00
2019-02-05T04:31:27.337Z,0.00
2019-02-05T04:32:27.293Z,0.00
2019-02-05T04:33:27.311Z,0.00
2019-02-05T04:34:27.207Z,0.00
2019-02-05T04:35:27.173Z,0.00
2019-02-05T04:36:27.126Z,0.00
2019-02-05T04:37:27.082Z,0.00
2019-02-05T04:38:27.036Z,0.00
2019-02-05T04:39:26.997Z,0.00
2019-02-05T04:40:26.943Z,0.00
2019-02-05T04:41:26.902Z,0.00
2019-02-05T04:42:26.857Z,0.00
2019-02-05T04:43:26.821Z,0.00
2019-02-05T04:44:26.776Z,0.00
2019-02-05T04:45:34.130Z,0.00
2019-02-05T04:46:26.684Z,0.00
2019-02-05T04:47:26.651Z,0.00
2019-02-05T04:48:26.599Z,0.00
2019-02-05T04:49:26.672Z,0.00
2019-02-05T04:50:26.518Z,0.00
2019-02-05T04:51:26.464Z,0.00
2019-02-05T04:52:26.429Z,0.00
2019-02-05T04:53:26.379Z,0.00
2019-02-05T04:54:26.334Z,0.00
2019-02-05T04:55:26.297Z,0.00
2019-02-05T04:56:26.250Z,0.00
2019-02-05T04:57:26.211Z,0.00
2019-02-05T04:58:26.165Z,0.00
2019-02-05T04:59:26.119Z,0.00
2019-02-05T05:00:26.102Z,0.00
2019-02-05T05:01:26.037Z,0.00
2019-02-05T05:02:25.991Z,0.00
2019-02-05T05:03:25.943Z,0.00
2019-02-05T05:04:25.908Z,0.00
2019-02-05T05:05:25.964Z,0.00
2019-02-05T05:06:25.815Z,0.00
2019-02-05T05:07:25.780Z,0.00
2019-02-05T05:08:25.729Z,0.00
2019-02-05T05:09:25.718Z,0.00
2019-02-05T05:10:25.643Z,0.00
2019-02-05T05:11:25.596Z,0.00
2019-02-05T05:12:25.558Z,0.00
2019-02-05T05:13:25.515Z,0.00
2019-02-05T05:14:25.473Z,0.00
2019-02-05T05:15:25.426Z,0.00
2019-02-05T05:16:25.381Z,0.00
2019-02-05T05:17:25.341Z,0.00
2019-02-05T05:18:25.294Z,0.00
2019-02-05T05:19:25.253Z,0.00
2019-02-05T05:20:25.207Z,0.00
2019-02-05T05:21:25.165Z,0.00
2019-02-05T05:22:25.123Z,0.00
2019-02-05T05:23:25.073Z,0.00
2019-02-05T05:24:25.035Z,0.00
2019-02-05T05:25:24.990Z,0.00
2019-02-05T05:26:24.949Z,0.00
2019-02-05T05:27:24.908Z,0.00
2019-02-05T05:28:24.865Z,0.00
2019-02-05T05:29:24.819Z,0.00
2019-02-05T05:30:24.778Z,0.00
2019-02-05T05:31:24.733Z,0.00
2019-02-05T05:32:24.684Z,0.00
2019-02-05T05:33:24.648Z,0.00
2019-02-05T05:34:24.610Z,0.00
2019-02-05T05:35:24.580Z,0.00
2019-02-05T05:36:24.514Z,0.00
2019-02-05T05:37:24.467Z,0.00
2019-02-05T05:38:24.425Z,0.00
2019-02-05T05:39:24.387Z,0.00
2019-02-05T05:40:24.346Z,0.00
2019-02-05T05:41:24.318Z,0.00
2019-02-05T05:42:24.258Z,0.00
2019-02-05T05:43:24.209Z,0.00
2019-02-05T05:44:24.169Z,0.00
2019-02-05T05:45:24.122Z,0.00
2019-02-05T05:46:24.080Z,0.00
2019-02-05T05:47:24.039Z,0.00
2019-02-05T05:48:23.992Z,0.00
2019-02-05T05:49:23.951Z,0.00
2019-02-05T05:50:23.912Z,0.00
2019-02-05T05:51:23.866Z,0.00
2019-02-05T05:52:23.825Z,0.00
2019-02-05T05:53:23.776Z,0.00
2019-02-05T05:54:23.737Z,0.00
2019-02-05T05:55:33.433Z,0.00
2019-02-05T05:57:28.109Z,0.00
2019-02-05T05:58:28.055Z,0.00
2019-02-05T05:59:27.985Z,0.00
2019-02-05T06:00:28.152Z,0.00
2019-02-05T06:01:27.898Z,0.00
2019-02-05T06:02:27.861Z,0.00
2019-02-05T06:03:27.816Z,0.00
2019-02-05T06:04:27.774Z,0.00
2019-02-05T06:05:27.727Z,0.00
2019-02-05T06:06:27.686Z,0.00
2019-02-05T06:07:27.637Z,0.00
2019-02-05T06:08:27.595Z,0.00
2019-02-05T06:09:27.557Z,0.00
2019-02-05T06:10:27.514Z,0.00
2019-02-05T06:11:27.465Z,0.00
2019-02-05T06:12:27.423Z,0.00
2019-02-05T06:13:27.384Z,0.00
2019-02-05T06:14:27.338Z,0.00
2019-02-05T06:15:27.306Z,0.00
2019-02-05T06:16:27.255Z,0.00
2019-02-05T06:17:27.210Z,0.00
2019-02-05T06:18:27.171Z,0.00
2019-02-05T06:19:27.120Z,0.00
2019-02-05T06:20:27.078Z,0.00
2019-02-05T06:21:27.042Z,0.00
2019-02-05T06:22:26.987Z,0.00
2019-02-05T06:23:26.952Z,0.00
2019-02-05T06:24:26.910Z,0.00
2019-02-05T06:25:26.875Z,0.00
2019-02-05T06:26:26.815Z,0.00
2019-02-05T06:27:26.785Z,0.00
2019-02-05T06:28:34.250Z,0.00
2019-02-05T06:29:26.689Z,0.00
2019-02-05T06:30:26.647Z,0.00
2019-02-05T06:31:26.601Z,0.00
2019-02-05T06:32:26.559Z,0.00
2019-02-05T06:33:26.540Z,0.00
2019-02-05T06:34:26.476Z,0.00
2019-02-05T06:35:26.437Z,0.00
2019-02-05T06:36:26.386Z,0.00
2019-02-05T06:37:26.345Z,0.00
2019-02-05T06:38:26.303Z,4.00
2019-02-05T06:39:26.253Z,0.00
2019-02-05T06:40:26.228Z,0.00
2019-02-05T06:41:26.172Z,4.00
2019-02-05T06:42:26.130Z,0.00
2019-02-05T06:43:26.080Z,4.00
2019-02-05T06:44:26.041Z,8.00
2019-02-05T06:45:25.999Z,8.00
2019-02-05T06:46:25.958Z,4.00
2019-02-05T06:47:25.914Z,8.00
2019-02-05T06:48:25.867Z,8.00
2019-02-05T06:49:25.826Z,8.00
2019-02-05T06:50:25.784Z,12.00
2019-02-05T06:51:25.738Z,16.00
2019-02-05T06:52:25.694Z,16.00
2019-02-05T06:53:25.653Z,20.00
2019-02-05T06:54:25.617Z,24.00
2019-02-05T06:55:25.572Z,24.00
2019-02-05T06:56:25.526Z,32.00
2019-02-05T06:57:25.479Z,32.00
2019-02-05T06:58:25.433Z,36.00
2019-02-05T06:59:25.415Z,40.00
2019-02-05T07:00:25.352Z,48.00
2019-02-05T07:01:25.312Z,52.00
2019-02-05T07:02:25.267Z,56.00
2019-02-05T07:03:25.220Z,56.00
2019-02-05T07:04:25.665Z,64.00
2019-02-05T07:05:25.959Z,68.00
2019-02-05T07:06:25.361Z,76.00
2019-02-05T07:07:26.853Z,84.00
2019-02-05T07:08:37.871Z,88.00
2019-02-05T07:09:25.475Z,96.00
2019-02-05T07:10:24.949Z,96.00
2019-02-05T07:11:24.898Z,100.00
2019-02-05T07:12:24.904Z,104.00
2019-02-05T07:13:24.826Z,112.00
2019-02-05T07:14:24.779Z,116.00
2019-02-05T07:15:24.731Z,128.00
2019-02-05T07:16:24.685Z,132.00
2019-02-05T07:17:24.658Z,140.00
2019-02-05T07:18:25.335Z,148.00
2019-02-05T07:19:24.557Z,156.00
2019-02-05T07:20:24.575Z,168.00
2019-02-05T07:21:24.471Z,180.00
2019-02-05T07:22:24.425Z,192.00
2019-02-05T07:23:24.378Z,200.00
2019-02-05T07:24:24.335Z,204.00
2019-02-05T07:25:24.303Z,216.00
2019-02-05T07:26:24.251Z,236.00
2019-02-05T07:27:24.439Z,244.00
2019-02-05T07:28:24.168Z,248.00
2019-02-05T07:29:24.770Z,252.00
2019-02-05T07:30:24.089Z,264.00
2019-02-05T07:31:24.038Z,280.00
2019-02-05T07:32:24.013Z,288.00
2019-02-05T07:33:23.952Z,300.00
2019-02-05T07:34:24.680Z,320.00
2019-02-05T07:35:23.865Z,340.00
2019-02-05T07:36:23.849Z,356.00
2019-02-05T07:37:23.783Z,376.00
2019-02-05T07:38:23.731Z,404.00
2019-02-05T07:39:23.725Z,408.00
2019-02-05T07:40:23.652Z,420.00
2019-02-05T07:41:23.634Z,432.00
2019-02-05T07:42:24.129Z,440.00
2019-02-05T07:43:23.516Z,452.00
2019-02-05T07:44:23.484Z,480.00
2019-02-05T07:45:23.438Z,460.00
2019-02-05T07:46:23.392Z,452.00
2019-02-05T07:47:23.583Z,460.00
2019-02-05T07:48:23.306Z,476.00
2019-02-05T07:49:23.361Z,488.00
2019-02-05T07:50:23.217Z,504.00
2019-02-05T07:51:23.183Z,492.00
2019-02-05T07:52:23.135Z,480.00
2019-02-05T07:53:23.099Z,480.00
2019-02-05T07:54:23.118Z,492.00
2019-02-05T07:55:23.000Z,512.00
2019-02-05T07:56:22.965Z,540.00
2019-02-05T07:57:22.920Z,552.00
2019-02-05T07:58:22.873Z,556.00
2019-02-05T07:59:22.856Z,572.00
2019-02-05T08:00:22.835Z,580.00
2019-02-05T08:01:22.778Z,576.00
2019-02-05T08:02:22.784Z,588.00
2019-02-05T08:03:22.783Z,616.00
2019-02-05T08:04:22.622Z,628.00
2019-02-05T08:05:22.595Z,628.00
2019-02-05T08:06:22.538Z,636.00
2019-02-05T08:07:22.492Z,648.00
2019-02-05T08:08:22.451Z,644.00
2019-02-05T08:09:22.415Z,636.00
2019-02-05T08:10:22.384Z,644.00
2019-02-05T08:11:22.329Z,660.00
2019-02-05T08:12:22.280Z,668.00
2019-02-05T08:13:22.241Z,672.00
2019-02-05T08:14:22.196Z,668.00
2019-02-05T08:15:22.150Z,676.00
2019-02-05T08:16:22.132Z,688.00
2019-02-05T08:17:22.073Z,716.00
2019-02-05T08:18:22.025Z,724.00
2019-02-05T08:19:21.979Z,716.00
2019-02-05T08:20:21.949Z,720.00
2019-02-05T08:21:21.899Z,744.00
2019-02-05T08:22:22.117Z,760.00
2019-02-05T08:23:21.833Z,788.00
2019-02-05T08:24:21.768Z,808.00
2019-02-05T08:25:21.916Z,848.00
2019-02-05T08:26:21.685Z,844.00
2019-02-05T08:27:21.634Z,856.00
2019-02-05T08:28:21.629Z,856.00
2019-02-05T08:29:21.974Z,848.00
2019-02-05T08:30:21.511Z,832.00
2019-02-05T08:31:21.492Z,816.00
2019-02-05T08:32:21.484Z,816.00
2019-02-05T08:33:21.403Z,808.00
2019-02-05T08:34:21.457Z,828.00
2019-02-05T08:35:21.308Z,864.00
2019-02-05T08:42:40.543Z,936.00
2019-02-05T08:43:37.670Z,932.00
2019-02-05T08:44:36.965Z,960.00
2019-02-05T08:45:36.474Z,1000.00
2019-02-05T08:46:37.353Z,1016.00
2019-02-05T08:47:36.410Z,1012.00
2019-02-05T08:48:36.286Z,1000.00
2019-02-05T08:49:42.688Z,1000.00
2019-02-05T08:50:48.377Z,1008.00
2019-02-05T08:51:43.653Z,1032.00
2019-02-05T08:52:35.846Z,1060.00
2019-02-05T08:53:35.724Z,1052.00
2019-02-05T08:54:35.802Z,1028.00
2019-02-05T08:55:36.387Z,1008.00
2019-02-05T08:56:42.786Z,980.00
2019-02-05T08:57:41.076Z,988.00
2019-02-05T08:58:35.570Z,984.00
2019-02-05T08:59:50.373Z,996.00
2019-02-05T09:00:38.138Z,996.00
2019-02-05T09:01:43.790Z,964.00
2019-02-05T09:02:45.956Z,948.00
2019-02-05T09:03:38.262Z,968.00
2019-02-05T09:04:37.266Z,996.00
2019-02-05T09:05:35.237Z,1040.00
2019-02-05T09:06:35.518Z,1044.00
2019-02-05T09:07:35.131Z,1040.00
2019-02-05T09:08:35.078Z,1048.00
2019-02-05T09:09:43.729Z,1044.00
2019-02-05T09:14:36.833Z,1004.00
2019-02-05T09:15:36.863Z,1040.00
2019-02-05T09:16:36.738Z,1068.00
2019-02-05T09:17:37.068Z,1084.00
2019-02-05T09:18:36.585Z,1100.00
2019-02-05T09:19:36.635Z,1060.00
2019-02-05T09:20:36.575Z,1048.00
2019-02-05T09:21:36.454Z,1068.00
2019-02-05T09:22:37.349Z,1064.00
2019-02-05T09:23:36.376Z,1068.00
2019-02-05T09:24:36.847Z,1096.00
2019-02-05T09:25:36.365Z,1128.00
2019-02-05T09:26:36.254Z,1168.00
2019-02-05T09:27:36.220Z,1208.00
2019-02-05T09:28:36.202Z,1220.00
2019-02-05T09:29:36.405Z,1236.00
2019-02-05T09:30:43.732Z,1304.00
2019-02-05T09:31:44.437Z,1344.00
2019-02-05T09:32:36.088Z,1364.00
2019-02-05T09:33:37.272Z,1408.00
2019-02-05T09:34:35.910Z,1464.00
2019-02-05T09:35:35.878Z,1520.00
2019-02-05T09:36:35.824Z,1540.00
2019-02-05T09:37:38.261Z,1540.00
2019-02-05T09:38:41.164Z,1524.00
2019-02-05T09:39:41.349Z,1488.00
2019-02-05T09:40:35.856Z,1500.00
2019-02-05T09:41:35.618Z,1520.00
2019-02-05T09:42:35.843Z,1508.00
2019-02-05T09:43:35.588Z,1568.00
2019-02-05T09:44:35.678Z,1696.00
2019-02-05T09:45:35.451Z,1768.00
2019-02-05T09:46:35.542Z,1816.00
2019-02-05T09:47:35.370Z,1896.00
2019-02-05T09:48:35.335Z,1932.00
2019-02-05T09:49:35.569Z,1976.00
2019-02-05T09:50:44.289Z,2040.00
2019-02-05T09:51:39.541Z,2136.00
2019-02-05T09:52:35.160Z,2220.00
2019-02-05T09:53:35.127Z,2316.00
2019-02-05T09:54:35.166Z,2360.00
2019-02-05T09:55:36.183Z,2424.00
2019-02-05T09:56:35.016Z,2452.00
2019-02-05T09:57:34.964Z,2504.00
2019-02-05T09:58:34.899Z,2560.00
2019-02-05T09:59:44.844Z,2728.00
2019-02-05T10:00:44.007Z,2784.00
2019-02-05T10:01:37.674Z,2660.00
2019-02-05T10:02:34.886Z,2572.00
2019-02-05T10:03:34.697Z,2544.00
2019-02-05T10:04:34.653Z,2464.00
2019-02-05T10:19:45.129Z,2044.00
2019-02-05T10:20:44.843Z,2000.00
2019-02-05T10:22:49.507Z,2024.00
2019-02-05T10:23:55.248Z,2056.00
2019-02-05T10:24:49.955Z,2068.00
2019-02-05T10:25:49.501Z,2044.00
2019-02-05T10:26:49.834Z,2028.00
2019-02-05T10:27:49.259Z,2032.00
2019-02-05T10:28:49.175Z,2072.00
2019-02-05T10:29:57.705Z,2048.00
2019-02-05T10:30:49.103Z,2052.00
2019-02-05T10:31:48.964Z,2064.00
2019-02-05T10:32:48.807Z,2076.00
2019-02-05T10:33:55.237Z,2064.00
2019-02-05T10:34:49.114Z,2020.00
2019-02-05T10:35:48.904Z,1972.00
2019-02-05T10:36:55.478Z,1972.00
2019-02-05T10:37:57.718Z,2012.00
2019-02-05T10:38:49.165Z,2128.00
2019-02-05T10:39:48.976Z,2196.00
2019-02-05T10:40:48.492Z,2232.00
2019-02-05T10:41:50.791Z,2268.00
2019-02-05T10:42:48.442Z,2312.00
2019-02-05T10:43:48.328Z,2340.00
2019-02-05T10:44:50.289Z,2360.00
2019-02-05T10:45:48.255Z,2400.00
2019-02-05T10:46:48.350Z,2436.00
2019-02-05T10:47:48.178Z,2452.00
2019-02-05T10:48:48.412Z,2472.00
2019-02-05T10:49:48.227Z,2460.00
2019-02-05T10:50:48.047Z,2464.00
2019-02-05T10:51:48.082Z,2440.00
2019-02-05T10:52:48.288Z,2404.00
2019-02-05T10:53:47.914Z,2324.00
2019-02-05T10:54:47.870Z,2312.00
2019-02-05T10:55:47.917Z,2340.00
2019-02-05T10:56:47.789Z,2360.00
2019-02-05T10:57:47.791Z,2420.00
2019-02-05T10:58:47.840Z,2432.00
2019-02-05T10:59:47.729Z,2456.00
2019-02-05T11:00:47.632Z,2472.00
2019-02-05T11:01:47.609Z,2492.00
2019-02-05T11:02:47.545Z,2512.00
2019-02-05T11:03:47.514Z,2536.00
2019-02-05T11:04:47.561Z,2520.00
2019-02-05T11:05:47.418Z,2528.00
2019-02-05T11:06:47.414Z,2552.00
2019-02-05T11:07:47.428Z,2588.00
2019-02-05T11:08:47.292Z,2548.00
2019-02-05T11:09:47.252Z,2496.00
2019-02-05T11:10:47.226Z,2476.00
2019-02-05T11:11:47.166Z,2444.00
2019-02-05T11:12:47.135Z,2324.00
2019-02-05T11:13:47.084Z,2312.00
2019-02-05T11:14:47.040Z,2316.00
2019-02-05T11:15:47.001Z,2272.00
2019-02-05T11:16:46.958Z,2256.00
2019-02-05T11:17:46.913Z,2284.00
2019-02-05T11:18:47.323Z,2324.00
2019-02-05T11:19:46.870Z,2364.00
2019-02-05T11:20:46.789Z,2456.00
2019-02-05T11:21:46.757Z,2456.00
2019-02-05T11:22:46.764Z,2456.00
2019-02-05T11:23:46.676Z,2520.00
2019-02-05T11:24:46.690Z,2612.00
2019-02-05T11:25:46.689Z,2668.00
2019-02-05T11:26:46.557Z,2664.00
2019-02-05T11:27:46.504Z,2580.00
2019-02-05T11:28:46.472Z,2548.00
2019-02-05T11:29:46.502Z,2556.00
2019-02-05T11:30:46.380Z,2668.00
2019-02-05T11:31:46.342Z,2716.00
2019-02-05T11:32:46.391Z,2692.00
2019-02-05T11:33:46.330Z,2648.00
2019-02-05T11:34:46.300Z,2668.00
2019-02-05T11:35:46.169Z,2648.00
2019-02-05T11:36:46.768Z,2632.00
2019-02-05T11:37:46.129Z,2648.00
2019-02-05T11:38:46.053Z,2652.00
2019-02-05T11:39:46.035Z,2700.00
2019-02-05T11:40:45.971Z,2728.00
2019-02-05T11:41:45.980Z,2732.00
2019-02-05T11:42:45.920Z,2728.00
2019-02-05T11:43:45.893Z,2712.00
2019-02-05T11:44:45.817Z,2724.00
2019-02-05T11:45:45.760Z,2672.00
2019-02-05T11:46:45.846Z,2608.00
2019-02-05T11:47:45.690Z,2564.00
2019-02-05T11:48:45.694Z,2644.00
2019-02-05T11:49:45.602Z,2688.00
2019-02-05T11:50:45.583Z,2688.00
2019-02-05T11:51:45.612Z,2680.00
2019-02-05T11:52:45.522Z,2740.00
2019-02-05T11:53:45.431Z,2776.00
2019-02-05T11:54:45.408Z,2760.00
2019-02-05T11:55:45.463Z,2752.00
2019-02-05T11:56:45.319Z,2672.00
2019-02-05T11:57:45.291Z,2608.00
2019-02-05T11:58:45.234Z,2500.00
2019-02-05T11:59:45.252Z,2360.00
2019-02-05T12:00:45.154Z,2320.00
2019-02-05T12:01:45.127Z,2372.00
2019-02-05T12:02:45.131Z,2456.00
2019-02-05T12:03:45.027Z,2484.00
2019-02-05T12:04:45.028Z,2500.00
2019-02-05T12:05:44.965Z,2484.00
2019-02-05T12:06:45.180Z,2452.00
2019-02-05T12:07:44.862Z,2412.00
2019-02-05T12:08:44.824Z,2348.00
2019-02-05T12:09:44.789Z,2336.00
2019-02-05T12:10:44.736Z,2296.00
2019-02-05T12:11:44.695Z,2092.00
2019-02-05T12:12:45.340Z,1888.00
2019-02-05T12:13:44.648Z,1784.00
2019-02-05T12:14:44.661Z,1696.00
2019-02-05T12:15:44.602Z,1700.00
2019-02-05T12:16:44.509Z,1764.00
2019-02-05T12:17:44.643Z,1824.00
2019-02-05T12:18:44.472Z,1852.00
2019-02-05T12:19:44.377Z,1856.00
2019-02-05T12:20:44.340Z,1792.00
2019-02-05T12:21:44.414Z,1716.00
2019-02-05T12:22:44.357Z,1644.00
2019-02-05T12:23:44.296Z,1660.00
2019-02-05T12:24:44.196Z,1712.00
2019-02-05T12:25:44.181Z,1764.00
2019-02-05T12:26:44.299Z,1880.00
2019-02-05T12:27:44.061Z,1980.00
2019-02-05T12:28:44.055Z,1972.00
2019-02-05T12:29:44.187Z,1952.00
2019-02-05T12:30:45.390Z,1956.00
2019-02-05T12:31:43.888Z,1932.00
2019-02-05T12:32:43.840Z,1920.00
2019-02-05T12:33:44.059Z,1900.00
2019-02-05T12:34:43.788Z,1916.00
2019-02-05T12:35:52.377Z,1876.00
2019-02-05T12:36:43.914Z,1848.00
2019-02-05T12:37:43.711Z,1792.00
2019-02-05T12:38:44.349Z,1780.00
2019-02-05T12:39:45.286Z,1740.00
2019-02-05T12:40:43.554Z,1640.00
2019-02-05T12:41:47.319Z,1784.00
2019-02-05T12:42:43.433Z,1888.00
2019-02-05T12:45:22.630Z,2060.00
2019-02-05T12:46:22.545Z,2056.00
2019-02-05T12:47:22.499Z,2036.00
2019-02-05T12:48:22.543Z,2028.00
2019-02-05T12:49:22.551Z,2024.00
2019-02-05T12:50:22.397Z,2028.00
2019-02-05T12:51:22.366Z,2100.00
2019-02-05T12:52:23.273Z,2140.00
2019-02-05T12:53:22.399Z,1980.00
2019-02-05T12:54:22.377Z,1788.00
2019-02-05T12:55:23.181Z,1740.00
2019-02-05T12:56:22.159Z,1760.00
2019-02-05T12:57:22.087Z,1808.00
2019-02-05T12:58:22.044Z,1768.00
2019-02-05T12:59:22.009Z,1604.00
2019-02-05T13:00:21.966Z,1484.00
2019-02-05T13:01:21.931Z,1440.00
2019-02-05T13:02:21.883Z,1424.00
2019-02-05T13:03:21.845Z,1484.00
2019-02-05T13:04:21.798Z,1552.00
2019-02-05T13:05:21.763Z,1500.00
2019-02-05T13:06:21.720Z,1540.00
2019-02-05T13:07:21.681Z,1616.00
2019-02-05T13:08:21.643Z,1616.00
2019-02-05T13:09:21.593Z,1656.00
2019-02-05T13:10:21.595Z,1628.00
2019-02-05T13:11:21.548Z,1560.00
2019-02-05T13:12:21.471Z,1524.00
2019-02-05T13:13:21.437Z,1504.00
2019-02-05T13:14:21.413Z,1548.00
2019-02-05T13:15:21.352Z,1640.00
2019-02-05T13:16:21.308Z,1692.00
2019-02-05T13:17:21.274Z,1708.00
2019-02-05T13:18:21.239Z,1668.00
2019-02-05T13:19:21.191Z,1664.00
2019-02-05T13:20:21.151Z,1656.00
2019-02-05T13:21:21.103Z,1616.00
2019-02-05T13:22:21.072Z,1628.00
2019-02-05T13:23:21.024Z,1592.00
2019-02-05T13:24:21.010Z,1500.00
2019-02-05T13:25:21.006Z,1444.00
2019-02-05T13:26:20.901Z,1448.00
2019-02-05T13:27:20.861Z,1440.00
2019-02-05T13:28:20.822Z,1420.00
2019-02-05T13:29:20.788Z,1372.00